createdAt,value
2022-08-16T00:02:26.532Z,100100.59
2022-08-16T00:04:59.627Z,100101.44
2022-08-16T00:07:29.173Z,100103.97
2022-08-16T00:09:58.847Z,100106.06
2022-08-16T00:12:27.289Z,100113.56
2022-08-16T00:14:57.220Z,100112.97
2022-08-16T00:17:27.094Z,100117.56
2022-08-16T00:19:58.151Z,100117.56
2022-08-16T00:22:27.882Z,100118.59
2022-08-16T00:24:56.540Z,100111.72
2022-08-16T00:27:25.591Z,100116.75
2022-08-16T00:30:08.380Z,100115.72
2022-08-16T00:32:38.649Z,100121.16
2022-08-16T00:35:15.207Z,100121.44
2022-08-16T00:37:57.782Z,100123.75
2022-08-16T00:40:34.059Z,100118.72
2022-08-16T00:43:11.986Z,100116.88
2022-08-16T00:45:58.251Z,100125.44
2022-08-16T00:48:31.249Z,100121.94
2022-08-16T00:51:02.530Z,100123.00
2022-08-16T00:53:31.981Z,100125.50
2022-08-16T00:56:05.790Z,100128.25
2022-08-16T00:58:36.326Z,100122.59
2022-08-16T01:01:08.455Z,100126.78
2022-08-16T01:03:41.510Z,100127.25
2022-08-16T01:06:40.248Z,100124.97
2022-08-16T01:09:08.071Z,100127.91
2022-08-16T01:11:51.762Z,100128.34
2022-08-16T01:14:30.116Z,100128.34
2022-08-16T01:17:00.852Z,100134.16
2022-08-16T01:19:33.023Z,100124.13
2022-08-16T01:22:48.667Z,100134.59
2022-08-16T01:25:05.479Z,100127.88
2022-08-16T01:27:40.841Z,100133.72
2022-08-16T01:30:20.607Z,100131.00
2022-08-16T01:33:01.313Z,100123.66
2022-08-16T01:35:36.314Z,100125.13
2022-08-16T01:38:19.977Z,100113.63
2022-08-16T01:40:51.573Z,100113.81
2022-08-16T01:43:20.398Z,100105.47
2022-08-16T01:45:57.618Z,100103.56
2022-08-16T01:48:30.122Z,100106.50
2022-08-16T01:51:08.271Z,100098.97
2022-08-16T01:53:40.749Z,100104.00
2022-08-16T01:56:24.342Z,100100.50
2022-08-16T01:58:53.599Z,100104.94
2022-08-16T02:01:22.004Z,100108.50
2022-08-16T02:03:51.773Z,100111.66
2022-08-16T02:06:34.263Z,100103.50
2022-08-16T02:09:05.396Z,100110.22
2022-08-16T02:11:48.668Z,100111.47
2022-08-16T02:14:22.476Z,100109.81
2022-08-16T02:16:56.215Z,100112.34
2022-08-16T02:19:58.713Z,100107.69
2022-08-16T02:22:34.499Z,100102.06
2022-08-16T02:25:14.947Z,100098.50
2022-08-16T02:27:47.982Z,100087.25
2022-08-16T02:30:37.612Z,100088.50
2022-08-16T02:33:12.475Z,100081.22
2022-08-16T02:35:53.949Z,100075.78
2022-08-16T02:38:27.350Z,100076.00
2022-08-16T02:40:56.621Z,100077.66
2022-08-16T02:43:27.772Z,100076.63
2022-08-16T02:45:56.415Z,100088.13
2022-08-16T02:48:28.983Z,100082.88
2022-08-16T02:51:06.953Z,100088.50
2022-08-16T02:53:43.230Z,100094.81
2022-08-16T02:56:14.949Z,100090.41
2022-08-16T02:58:45.374Z,100084.56
2022-08-16T03:01:24.875Z,100085.41
2022-08-16T03:04:39.425Z,100076.19
2022-08-16T03:06:56.329Z,100071.22
2022-08-16T03:09:28.666Z,100072.03
2022-08-16T03:12:00.996Z,100070.78
2022-08-16T03:14:32.748Z,100079.34
2022-08-16T03:17:02.102Z,100073.03
2022-08-16T03:19:47.491Z,100071.16
2022-08-16T03:22:29.001Z,100072.00
2022-08-16T03:25:00.739Z,100071.16
2022-08-16T03:27:32.439Z,100066.13
2022-08-16T03:30:17.478Z,100075.13
2022-08-16T03:32:48.001Z,100072.00
2022-08-16T03:35:23.002Z,100071.59
2022-08-16T03:38:02.805Z,100080.97
2022-08-16T03:40:33.862Z,100082.84
2022-08-16T03:43:19.978Z,100079.94
2022-08-16T03:45:52.328Z,100077.66
2022-08-16T03:48:36.182Z,100071.59
2022-08-16T03:51:10.121Z,100082.06
2022-08-16T03:53:40.932Z,100072.19
2022-08-16T03:56:19.664Z,100076.00
2022-08-16T03:58:50.675Z,100073.47
2022-08-16T04:01:21.519Z,100079.13
2022-08-16T04:03:51.188Z,100073.28
2022-08-16T04:06:22.114Z,100074.34
2022-08-16T04:08:50.842Z,100087.06
2022-08-16T04:11:19.634Z,100091.03
2022-08-16T04:13:59.891Z,100097.13
2022-08-16T04:16:37.324Z,100099.19
2022-08-16T04:19:05.938Z,100095.03
2022-08-16T04:21:46.203Z,100093.34
2022-08-16T04:24:16.304Z,100098.13
2022-08-16T04:26:46.418Z,100097.09
2022-08-16T04:29:23.740Z,100104.59
2022-08-16T04:31:56.848Z,100113.38
2022-08-16T04:34:27.819Z,100105.03
2022-08-16T04:36:56.711Z,100117.34
2022-08-16T04:39:37.127Z,100115.06
2022-08-16T04:42:14.079Z,100121.72
2022-08-16T04:44:53.508Z,100119.66
2022-08-16T04:47:35.424Z,100131.16
2022-08-16T04:50:06.257Z,100128.84
2022-08-16T04:52:36.444Z,100133.66
2022-08-16T04:55:07.965Z,100137.22
2022-08-16T04:57:37.312Z,100127.16
2022-08-16T05:00:30.266Z,100135.34
2022-08-16T05:03:07.482Z,100131.97
2022-08-16T05:05:45.101Z,100133.00
2022-08-16T05:08:29.111Z,100137.22
2022-08-16T05:11:00.706Z,100143.94
2022-08-16T05:13:40.653Z,100147.25
2022-08-16T05:16:20.356Z,100144.94
2022-08-16T05:18:53.857Z,100143.88
2022-08-16T05:21:27.061Z,100149.75
2022-08-16T05:24:00.106Z,100147.84
2022-08-16T05:26:32.899Z,100161.03
2022-08-16T05:29:04.372Z,100153.94
2022-08-16T05:31:32.955Z,100156.00
2022-08-16T05:34:06.045Z,100156.88
2022-08-16T05:36:47.956Z,100155.63
2022-08-16T05:39:20.755Z,100158.97
2022-08-16T05:41:51.772Z,100154.81
2022-08-16T05:44:23.392Z,100152.28
2022-08-16T05:46:54.951Z,100164.84
2022-08-16T05:49:39.631Z,100154.38
2022-08-16T05:52:11.267Z,100156.88
2022-08-16T05:54:46.716Z,100173.19
2022-08-16T05:57:17.611Z,100169.22
2022-08-16T05:59:50.367Z,100165.06
2022-08-16T06:02:33.279Z,100169.44
2022-08-16T06:05:03.777Z,100171.31
2022-08-16T06:07:32.408Z,100166.50
2022-08-16T06:10:01.583Z,100167.34
2022-08-16T06:12:31.009Z,100169.47
2022-08-16T06:15:01.899Z,100155.00
2022-08-16T06:17:41.651Z,100163.16
2022-08-16T06:20:18.435Z,100182.00
2022-08-16T06:22:57.511Z,100176.31
2022-08-16T06:25:36.562Z,100179.06
2022-08-16T06:28:09.308Z,100174.59
2022-08-16T06:30:43.938Z,100174.16
2022-08-16T06:33:22.450Z,100176.84
2022-08-16T06:35:54.713Z,100180.78
2022-08-16T06:38:32.753Z,100186.22
2022-08-16T06:41:04.971Z,100192.63
2022-08-16T06:43:34.890Z,100189.06
2022-08-16T06:46:06.193Z,100194.25
2022-08-16T06:48:42.676Z,100193.16
2022-08-16T06:51:14.813Z,100192.03
2022-08-16T06:53:43.251Z,100194.53
2022-08-16T06:56:14.692Z,100196.34
2022-08-16T06:58:52.814Z,100195.66
2022-08-16T07:01:43.211Z,100193.25
2022-08-16T07:04:11.799Z,100194.88
2022-08-16T07:06:44.005Z,100196.50
2022-08-16T07:09:16.021Z,100195.16
2022-08-16T07:11:47.534Z,100205.41
2022-08-16T07:14:25.837Z,100207.88
2022-08-16T07:16:58.831Z,100200.50
2022-08-16T07:19:33.747Z,100196.09
2022-08-16T07:22:36.632Z,100202.91
2022-08-16T07:25:09.962Z,100209.84
2022-08-16T07:27:39.058Z,100211.41
2022-08-16T07:30:39.146Z,100203.91
2022-08-16T07:33:01.339Z,100208.03
2022-08-16T07:35:29.774Z,100206.06
2022-08-16T07:37:59.734Z,100197.88
2022-08-16T07:40:56.252Z,100201.25
2022-08-16T07:43:16.211Z,100205.00
2022-08-16T07:45:48.270Z,100210.25
2022-08-16T07:48:21.479Z,100210.19
2022-08-16T07:50:55.712Z,100214.88
2022-08-16T07:53:29.516Z,100222.59
2022-08-16T07:56:00.350Z,100215.03
2022-08-16T07:58:34.858Z,100228.28
2022-08-16T08:01:12.458Z,100224.81
2022-08-16T08:03:48.365Z,100223.81
2022-08-16T08:06:18.200Z,100226.63
2022-08-16T08:08:50.470Z,100227.31
2022-08-16T08:11:21.683Z,100229.38
2022-08-16T08:13:53.479Z,100230.44
2022-08-16T08:16:30.084Z,100228.09
2022-08-16T08:19:02.339Z,100228.47
2022-08-16T08:22:01.101Z,100228.09
2022-08-16T08:24:31.947Z,100240.84
2022-08-16T08:27:02.303Z,100237.34
2022-08-16T08:29:36.835Z,100245.78
2022-08-16T08:32:57.756Z,100250.59
2022-08-16T08:34:56.278Z,100239.88
2022-08-16T08:37:54.278Z,100255.03
2022-08-16T08:40:24.549Z,100252.72
2022-08-16T08:43:00.101Z,100259.00
2022-08-16T08:45:49.183Z,100258.53
2022-08-16T08:48:33.455Z,100255.97
2022-08-16T08:51:04.818Z,100258.38
2022-08-16T08:53:33.792Z,100268.38
2022-08-16T08:56:23.306Z,100260.97
2022-08-16T08:58:59.069Z,100263.59
2022-08-16T09:01:36.297Z,100266.28
2022-08-16T09:04:06.786Z,100271.28
2022-08-16T09:06:35.883Z,100271.84
2022-08-16T09:09:16.968Z,100271.38
2022-08-16T09:11:53.786Z,100263.16
2022-08-16T09:14:35.732Z,100275.38
2022-08-16T09:17:12.028Z,100277.81
2022-08-16T09:19:53.899Z,100276.47
2022-08-16T09:22:24.424Z,100271.34
2022-08-16T09:24:58.158Z,100271.34
2022-08-16T09:27:57.084Z,100279.19
2022-08-16T09:30:33.868Z,100283.78
2022-08-16T09:33:07.703Z,100285.72
2022-08-16T09:35:38.647Z,100286.31
2022-08-16T09:38:08.620Z,100283.53
2022-08-16T09:40:42.877Z,100284.34
2022-08-16T09:43:46.335Z,100283.81
2022-08-16T09:46:45.508Z,100277.56
2022-08-16T09:48:56.709Z,100279.34
2022-08-16T09:51:30.789Z,100287.03
2022-08-16T09:54:05.900Z,100281.00
2022-08-16T09:56:35.919Z,100288.19
2022-08-16T09:59:09.990Z,100276.03
2022-08-16T10:01:43.454Z,100280.13
2022-08-16T10:04:29.689Z,100278.59
2022-08-16T10:07:15.017Z,100279.06
2022-08-16T10:09:55.209Z,100284.19
2022-08-16T10:12:43.586Z,100274.06
2022-08-16T10:15:16.965Z,100285.56
2022-08-16T10:18:00.014Z,100281.63
2022-08-16T10:20:33.899Z,100281.06
2022-08-16T10:23:07.255Z,100284.81
2022-08-16T10:27:17.462Z,100283.66
2022-08-16T10:28:29.677Z,100279.56
2022-08-16T10:31:03.582Z,100278.81
2022-08-16T10:33:34.022Z,100288.69
2022-08-16T10:36:04.981Z,100283.84
2022-08-16T10:38:36.707Z,100281.47
2022-08-16T10:41:07.133Z,100280.03
2022-08-16T10:43:35.725Z,100286.44
2022-08-16T10:46:40.011Z,100281.91
2022-08-16T10:48:54.007Z,100281.91
2022-08-16T10:51:34.277Z,100285.69
2022-08-16T10:54:29.296Z,100288.41
2022-08-16T10:56:59.173Z,100292.84
2022-08-16T10:59:38.257Z,100299.50
2022-08-16T11:03:37.431Z,100297.38
2022-08-16T11:05:14.114Z,100306.28
2022-08-16T11:07:53.645Z,100306.94
2022-08-16T11:13:56.770Z,100315.09
2022-08-16T11:19:03.963Z,100313.13
2022-08-16T11:21:37.671Z,100308.66
2022-08-16T11:24:42.510Z,100314.69
2022-08-16T11:27:35.867Z,100313.09
2022-08-16T11:30:09.003Z,100316.94
2022-08-16T11:32:37.783Z,100319.91
2022-08-16T11:35:14.674Z,100324.09
2022-08-16T11:40:38.890Z,100330.44
2022-08-16T11:43:10.413Z,100332.31
2022-08-16T11:45:38.639Z,100332.97
2022-08-16T11:48:08.240Z,100336.38
2022-08-16T11:50:37.993Z,100336.41
2022-08-16T11:53:08.123Z,100337.22
2022-08-16T11:55:38.206Z,100338.38
2022-08-16T11:58:11.009Z,100337.13
2022-08-16T12:00:51.956Z,100344.31
2022-08-16T12:03:34.299Z,100343.09
2022-08-16T12:06:10.920Z,100357.63
2022-08-16T12:08:55.622Z,100370.28
2022-08-16T12:11:23.859Z,100377.44
2022-08-16T12:13:56.122Z,100381.00
2022-08-16T12:16:31.386Z,100386.53
2022-08-16T12:19:03.404Z,100394.16
2022-08-16T12:21:36.088Z,100385.06
2022-08-16T12:24:23.913Z,100387.47
2022-08-16T12:26:52.240Z,100380.19
2022-08-16T12:29:21.173Z,100383.75
2022-08-16T12:32:01.706Z,100386.25
2022-08-16T12:34:47.967Z,100382.88
2022-08-16T12:37:21.111Z,100390.13
2022-08-16T12:39:51.281Z,100385.66
2022-08-16T12:42:34.394Z,100385.00
2022-08-16T12:45:09.206Z,100382.66
2022-08-16T12:48:10.043Z,100389.59
2022-08-16T12:50:43.245Z,100390.44
2022-08-16T12:53:20.815Z,100394.44
2022-08-16T12:55:50.364Z,100396.09
2022-08-16T12:58:49.974Z,100384.22
2022-08-16T13:01:11.379Z,100393.44
2022-08-16T13:03:41.559Z,100391.00
2022-08-16T13:06:12.363Z,100398.97
2022-08-16T13:08:42.635Z,100390.84
2022-08-16T13:11:17.721Z,100398.78
2022-08-16T13:13:46.032Z,100394.19
2022-08-16T13:16:24.880Z,100395.22
2022-08-16T13:18:54.453Z,100394.00
2022-08-16T13:21:23.662Z,100388.75
2022-08-16T13:23:55.773Z,100396.06
2022-08-16T13:26:26.419Z,100386.47
2022-08-16T13:28:55.080Z,100390.88
2022-08-16T13:31:23.877Z,100391.50
2022-08-16T13:33:58.440Z,100381.44
2022-08-16T13:39:17.452Z,100384.16
2022-08-16T13:41:54.141Z,100384.53
2022-08-16T13:44:48.866Z,100379.88
2022-08-16T13:47:16.847Z,100383.25
2022-08-16T13:49:46.508Z,100384.28
2022-08-16T13:52:16.008Z,100391.41
2022-08-16T13:54:46.906Z,100385.75
2022-08-16T13:57:15.950Z,100389.53
2022-08-16T13:59:45.355Z,100389.53
2022-08-16T14:02:14.032Z,100393.31
2022-08-16T14:04:44.265Z,100392.44
2022-08-16T14:07:19.717Z,100388.91
2022-08-16T14:09:50.375Z,100394.13
2022-08-16T14:12:25.038Z,100394.69
2022-08-16T14:14:57.251Z,100393.88
2022-08-16T14:17:25.979Z,100399.06
2022-08-16T14:19:54.247Z,100394.47
2022-08-16T14:22:35.918Z,100394.31
2022-08-16T14:25:12.203Z,100399.56
2022-08-16T14:27:44.365Z,100396.66
2022-08-16T14:30:16.369Z,100393.31
2022-08-16T14:32:46.949Z,100394.38
2022-08-16T14:35:29.496Z,100397.09
2022-08-16T14:38:13.511Z,100394.19
2022-08-16T14:40:55.298Z,100391.91
2022-08-16T14:43:24.674Z,100390.84
2022-08-16T14:45:54.865Z,100396.50
2022-08-16T14:54:30.718Z,100387.34
2022-08-16T14:57:03.001Z,100376.47
2022-08-16T14:59:32.977Z,100390.66
2022-08-16T15:02:03.582Z,100389.22
2022-08-16T15:04:40.356Z,100386.91
2022-08-16T15:07:22.326Z,100385.88
2022-08-16T15:10:00.083Z,100394.44
2022-08-16T15:12:36.315Z,100385.88
2022-08-16T15:15:12.208Z,100393.59
2022-08-16T15:17:56.159Z,100401.53
2022-08-16T15:20:26.737Z,100385.38
2022-08-16T15:22:56.093Z,100398.97
2022-08-16T15:25:29.682Z,100395.56
2022-08-16T15:28:02.462Z,100397.84
2022-08-16T15:30:58.510Z,100401.81
2022-08-16T15:33:27.462Z,100397.84
2022-08-16T15:35:58.279Z,100393.91
2022-08-16T15:38:54.999Z,100406.66
2022-08-16T15:41:50.171Z,100406.22
2022-08-16T15:44:23.700Z,100415.66
2022-08-16T15:46:55.837Z,100414.66
2022-08-16T15:49:37.142Z,100411.34
2022-08-16T15:52:14.985Z,100405.72
2022-08-16T15:54:57.557Z,100411.59
2022-08-16T15:57:36.902Z,100409.97
2022-08-16T16:00:20.868Z,100401.00
2022-08-16T16:03:08.654Z,100400.38
2022-08-16T16:05:38.571Z,100407.94
2022-08-16T16:08:10.850Z,100405.00
2022-08-16T16:10:41.125Z,100406.69
2022-08-16T16:13:13.684Z,100406.50
2022-08-16T16:15:47.559Z,100402.75
2022-08-16T16:18:26.386Z,100410.91
2022-08-16T16:20:57.118Z,100413.00
2022-08-16T16:23:29.253Z,100408.44
2022-08-16T16:25:57.829Z,100406.75
2022-08-16T16:28:51.285Z,100409.25
2022-08-16T16:31:23.549Z,100399.22
2022-08-16T16:33:55.935Z,100412.81
2022-08-16T16:36:28.742Z,100411.38
2022-08-16T16:38:58.253Z,100413.91
2022-08-16T16:41:28.322Z,100414.72
2022-08-16T16:43:59.717Z,100414.72
2022-08-16T16:46:43.039Z,100409.09
2022-08-16T16:49:14.119Z,100412.66
2022-08-16T16:51:44.559Z,100424.78
2022-08-16T16:54:13.405Z,100417.88
2022-08-16T16:56:56.481Z,100417.63
2022-08-16T16:59:25.639Z,100418.06
2022-08-16T17:02:38.682Z,100422.66
2022-08-16T17:04:53.019Z,100417.22
2022-08-16T17:07:24.402Z,100426.81
2022-08-16T17:09:53.307Z,100430.53
2022-08-16T17:12:24.891Z,100417.97
2022-08-16T17:14:57.811Z,100426.28
2022-08-16T17:17:29.681Z,100427.50
2022-08-16T17:19:59.258Z,100426.63
2022-08-16T17:22:33.052Z,100428.72
2022-08-16T17:25:07.450Z,100421.56
2022-08-16T17:27:37.382Z,100426.59
2022-08-16T17:30:15.779Z,100428.19
2022-08-16T17:32:54.685Z,100425.06
2022-08-16T17:35:34.305Z,100413.13
2022-08-16T17:38:05.986Z,100425.56
2022-08-16T17:40:47.199Z,100430.34
2022-08-16T17:43:24.812Z,100433.47
2022-08-16T17:45:53.293Z,100439.09
2022-08-16T17:48:22.952Z,100435.94
2022-08-16T17:50:54.617Z,100432.56
2022-08-16T17:53:24.189Z,100430.06
2022-08-16T17:55:54.602Z,100436.53
2022-08-16T17:58:24.459Z,100422.13
2022-08-16T18:00:56.134Z,100420.44
2022-08-16T18:04:07.807Z,100431.25
2022-08-16T18:06:18.766Z,100423.31
2022-08-16T18:08:49.102Z,100442.44
2022-08-16T18:11:26.163Z,100434.31
2022-08-16T18:13:56.119Z,100440.97
2022-08-16T18:16:24.584Z,100444.28
2022-08-16T18:18:54.218Z,100444.91
2022-08-16T18:21:41.251Z,100447.63
2022-08-16T18:24:10.413Z,100463.50
2022-08-16T18:26:39.401Z,100462.38
2022-08-16T18:29:08.232Z,100467.81
2022-08-16T18:31:40.682Z,100469.91
2022-08-16T18:34:10.343Z,100473.25
2022-08-16T18:36:38.510Z,100469.50
2022-08-16T18:39:07.204Z,100488.91
2022-08-16T18:41:37.449Z,100474.88
2022-08-16T18:44:25.444Z,100480.13
2022-08-16T18:46:55.217Z,100479.47
2022-08-16T18:49:24.979Z,100485.28
2022-08-16T18:52:03.259Z,100485.88
2022-08-16T18:54:33.267Z,100484.00
2022-08-16T18:57:04.596Z,100490.00
2022-08-16T18:59:36.318Z,100494.03
2022-08-16T19:02:05.773Z,100486.88
2022-08-16T19:04:54.914Z,100486.84
2022-08-16T19:07:29.743Z,100495.59
2022-08-16T19:10:01.272Z,100488.63
2022-08-16T19:12:37.970Z,100497.59
2022-08-16T19:15:14.112Z,100497.50
2022-08-16T19:17:42.899Z,100497.34
2022-08-16T19:20:15.507Z,100508.38
2022-08-16T19:23:05.233Z,100509.59
2022-08-16T19:25:48.697Z,100510.38
2022-08-16T19:28:51.452Z,100526.47
2022-08-16T19:31:16.084Z,100520.38
2022-08-16T19:33:53.270Z,100518.69
2022-08-16T19:36:31.359Z,100532.09
2022-08-16T19:39:04.360Z,100533.94
2022-08-16T19:41:34.371Z,100534.19
2022-08-16T19:44:02.495Z,100530.84
2022-08-16T19:46:30.611Z,100531.69
2022-08-16T19:48:58.988Z,100531.69
2022-08-16T19:51:28.586Z,100541.69
2022-08-16T19:53:56.640Z,100537.94
2022-08-16T19:56:25.969Z,100540.84
2022-08-16T20:01:43.215Z,100541.91
2022-08-16T20:04:13.212Z,100537.50
2022-08-16T20:06:43.571Z,100543.78
2022-08-16T20:09:14.905Z,100534.97
2022-08-16T20:11:43.670Z,100543.78
2022-08-16T20:14:12.168Z,100544.13
2022-08-16T20:16:58.024Z,100548.72
2022-08-16T20:19:27.763Z,100553.94
2022-08-16T20:22:01.756Z,100550.88
2022-08-16T20:24:34.534Z,100562.19
2022-08-16T20:27:03.819Z,100559.06
2022-08-16T20:29:32.081Z,100555.91
2022-08-16T20:32:00.273Z,100569.72
2022-08-16T20:34:28.412Z,100562.25
2022-08-16T20:36:57.922Z,100560.84
2022-08-16T20:39:26.159Z,100555.41
2022-08-16T20:41:54.388Z,100560.84
2022-08-16T20:44:22.787Z,100557.47
2022-08-16T20:46:53.586Z,100563.56
2022-08-16T20:49:21.668Z,100564.19
2022-08-16T20:51:53.756Z,100568.25
2022-08-16T20:54:27.286Z,100566.56
2022-08-16T20:56:55.329Z,100572.47
2022-08-16T20:59:23.397Z,100577.44
2022-08-16T21:01:51.493Z,100575.81
2022-08-16T21:04:21.415Z,100586.28
2022-08-16T21:06:54.164Z,100582.91
2022-08-16T21:09:24.873Z,100587.13
2022-08-16T21:11:57.713Z,100583.19
2022-08-16T21:14:26.185Z,100589.28
2022-08-16T21:16:55.119Z,100588.50
2022-08-16T21:19:28.672Z,100595.13
2022-08-16T21:21:57.358Z,100591.41
2022-08-16T21:24:26.431Z,100599.81
2022-08-16T21:26:56.462Z,100590.22
2022-08-16T21:29:39.570Z,100589.38
2022-08-16T21:32:15.949Z,100589.59
2022-08-16T21:34:44.468Z,100593.59
2022-08-16T21:37:15.605Z,100587.34
2022-08-16T21:39:44.139Z,100607.38
2022-08-16T21:42:17.662Z,100606.50
2022-08-16T21:44:46.751Z,100597.53
2022-08-16T21:47:15.169Z,100596.69
2022-08-16T21:49:43.477Z,100601.09
2022-08-16T21:52:22.656Z,100599.66
2022-08-16T21:55:00.858Z,100596.59
2022-08-16T21:57:35.540Z,100593.66
2022-08-16T22:00:13.496Z,100604.47
2022-08-16T22:02:51.084Z,100600.75
2022-08-16T22:05:23.543Z,100598.25
2022-08-16T22:08:00.918Z,100600.34
2022-08-16T22:11:06.477Z,100613.78
2022-08-16T22:13:31.666Z,100608.91
2022-08-16T22:16:00.075Z,100619.78
2022-08-16T22:18:29.654Z,100610.03
2022-08-16T22:21:14.643Z,100611.06
2022-08-16T22:23:57.894Z,100616.06
2022-08-16T22:26:43.469Z,100625.03
2022-08-16T22:29:16.139Z,100617.06
2022-08-16T23:16:17.219Z,100634.84
2022-08-16T23:18:48.836Z,100636.53
2022-08-16T23:21:19.675Z,100635.84
2022-08-16T23:23:51.419Z,100635.28
2022-08-16T23:29:24.398Z,100637.56
2022-08-16T23:32:20.167Z,100644.47
2022-08-16T23:34:53.128Z,100645.09
2022-08-16T23:37:30.078Z,100648.00
2022-08-16T23:40:01.793Z,100646.97
2022-08-16T23:42:53.210Z,100645.75
2022-08-16T23:45:21.270Z,100646.97
2022-08-16T23:47:51.589Z,100640.72
2022-08-16T23:50:25.161Z,100641.94
2022-08-16T23:52:59.506Z,100635.69
2022-08-16T23:55:30.031Z,100637.72
2022-08-16T23:58:06.157Z,100634.38
